sensor_id;sensor_type;location;lat;lon;timestamp;temperature;humidity
40085;DHT22;25786;51.504;7.344;2023-03-02T00:00:53;1.30;67.30
40085;DHT22;25786;51.504;7.344;2023-03-02T00:03:19;1.30;67.10
40085;DHT22;25786;51.504;7.344;2023-03-02T00:05:45;1.30;67.70
40085;DHT22;25786;51.504;7.344;2023-03-02T00:08:16;1.40;68.40
40085;DHT22;25786;51.504;7.344;2023-03-02T00:10:42;1.40;69.00
40085;DHT22;25786;51.504;7.344;2023-03-02T00:13:08;1.40;68.80
40085;DHT22;25786;51.504;7.344;2023-03-02T00:15:33;1.40;68.60
40085;DHT22;25786;51.504;7.344;2023-03-02T00:17:59;1.30;68.60
40085;DHT22;25786;51.504;7.344;2023-03-02T00:20:24;1.30;68.80
40085;DHT22;25786;51.504;7.344;2023-03-02T00:22:50;1.30;68.80
40085;DHT22;25786;51.504;7.344;2023-03-02T00:25:15;1.30;69.20
40085;DHT22;25786;51.504;7.344;2023-03-02T00:27:41;1.30;68.80
40085;DHT22;25786;51.504;7.344;2023-03-02T00:30:07;1.20;69.30
40085;DHT22;25786;51.504;7.344;2023-03-02T00:32:33;1.20;69.00
40085;DHT22;25786;51.504;7.344;2023-03-02T00:34:59;1.20;69.20
40085;DHT22;25786;51.504;7.344;2023-03-02T00:37:24;1.10;69.80
40085;DHT22;25786;51.504;7.344;2023-03-02T00:39:50;1.10;69.60
40085;DHT22;25786;51.504;7.344;2023-03-02T00:42:16;1.00;69.70
40085;DHT22;25786;51.504;7.344;2023-03-02T00:44:41;1.10;70.20
40085;DHT22;25786;51.504;7.344;2023-03-02T00:47:07;1.20;69.90
40085;DHT22;25786;51.504;7.344;2023-03-02T00:49:32;1.10;69.00
40085;DHT22;25786;51.504;7.344;2023-03-02T00:51:59;1.10;68.90
40085;DHT22;25786;51.504;7.344;2023-03-02T00:54:25;1.10;69.80
40085;DHT22;25786;51.504;7.344;2023-03-02T00:56:50;1.10;69.80
40085;DHT22;25786;51.504;7.344;2023-03-02T00:59:16;1.00;69.60
40085;DHT22;25786;51.504;7.344;2023-03-02T01:01:51;1.00;70.00
40085;DHT22;25786;51.504;7.344;2023-03-02T01:04:23;1.10;70.00
40085;DHT22;25786;51.504;7.344;2023-03-02T01:06:48;1.10;69.20
40085;DHT22;25786;51.504;7.344;2023-03-02T01:09:14;1.20;69.00
40085;DHT22;25786;51.504;7.344;2023-03-02T01:11:39;1.20;68.20
40085;DHT22;25786;51.504;7.344;2023-03-02T01:14:05;1.20;68.40
40085;DHT22;25786;51.504;7.344;2023-03-02T01:16:31;1.30;68.00
40085;DHT22;25786;51.504;7.344;2023-03-02T01:18:57;1.10;67.80
40085;DHT22;25786;51.504;7.344;2023-03-02T01:21:22;1.10;68.60
40085;DHT22;25786;51.504;7.344;2023-03-02T01:23:48;1.20;67.90
40085;DHT22;25786;51.504;7.344;2023-03-02T01:26:13;1.10;68.50
40085;DHT22;25786;51.504;7.344;2023-03-02T01:28:39;1.10;68.50
40085;DHT22;25786;51.504;7.344;2023-03-02T01:31:04;0.90;68.50
40085;DHT22;25786;51.504;7.344;2023-03-02T01:33:30;0.80;68.90
40085;DHT22;25786;51.504;7.344;2023-03-02T01:35:56;0.70;69.70
40085;DHT22;25786;51.504;7.344;2023-03-02T01:38:21;1.00;69.10
40085;DHT22;25786;51.504;7.344;2023-03-02T01:40:46;0.90;69.30
40085;DHT22;25786;51.504;7.344;2023-03-02T01:43:13;0.90;69.40
40085;DHT22;25786;51.504;7.344;2023-03-02T01:48:19;1.00;68.80
40085;DHT22;25786;51.504;7.344;2023-03-02T01:50:45;0.90;68.40
40085;DHT22;25786;51.504;7.344;2023-03-02T01:53:12;1.00;68.20
40085;DHT22;25786;51.504;7.344;2023-03-02T01:55:38;1.00;68.40
40085;DHT22;25786;51.504;7.344;2023-03-02T01:58:04;1.00;68.60
40085;DHT22;25786;51.504;7.344;2023-03-02T02:00:34;1.10;68.20
40085;DHT22;25786;51.504;7.344;2023-03-02T02:03:02;1.10;67.80
40085;DHT22;25786;51.504;7.344;2023-03-02T02:05:39;1.00;68.00
40085;DHT22;25786;51.504;7.344;2023-03-02T02:08:05;1.10;68.10
40085;DHT22;25786;51.504;7.344;2023-03-02T02:10:32;1.00;68.50
40085;DHT22;25786;51.504;7.344;2023-03-02T02:12:57;1.00;68.80
40085;DHT22;25786;51.504;7.344;2023-03-02T02:15:23;0.90;69.00
40085;DHT22;25786;51.504;7.344;2023-03-02T02:17:49;0.90;69.30
40085;DHT22;25786;51.504;7.344;2023-03-02T02:28:12;0.80;69.80
40085;DHT22;25786;51.504;7.344;2023-03-02T02:30:38;0.70;70.00
40085;DHT22;25786;51.504;7.344;2023-03-02T02:33:04;0.70;70.60
40085;DHT22;25786;51.504;7.344;2023-03-02T02:35:31;0.60;70.50
40085;DHT22;25786;51.504;7.344;2023-03-02T02:38:03;0.50;70.10
40085;DHT22;25786;51.504;7.344;2023-03-02T02:40:49;0.60;70.50
40085;DHT22;25786;51.504;7.344;2023-03-02T02:43:19;0.50;70.90
40085;DHT22;25786;51.504;7.344;2023-03-02T02:45:45;0.50;71.20
40085;DHT22;25786;51.504;7.344;2023-03-02T02:48:15;0.50;71.20
40085;DHT22;25786;51.504;7.344;2023-03-02T02:50:41;0.50;70.70
40085;DHT22;25786;51.504;7.344;2023-03-02T02:53:11;0.60;70.40
40085;DHT22;25786;51.504;7.344;2023-03-02T02:55:37;0.50;70.40
40085;DHT22;25786;51.504;7.344;2023-03-02T02:58:06;0.40;70.70
40085;DHT22;25786;51.504;7.344;2023-03-02T03:00:37;0.50;70.90
40085;DHT22;25786;51.504;7.344;2023-03-02T03:03:05;0.50;70.30
40085;DHT22;25786;51.504;7.344;2023-03-02T03:05:32;0.60;70.90
40085;DHT22;25786;51.504;7.344;2023-03-02T03:08:07;0.40;70.00
40085;DHT22;25786;51.504;7.344;2023-03-02T03:10:33;0.40;70.40
40085;DHT22;25786;51.504;7.344;2023-03-02T03:13:00;0.40;70.70
40085;DHT22;25786;51.504;7.344;2023-03-02T03:15:26;0.30;70.40
40085;DHT22;25786;51.504;7.344;2023-03-02T03:17:53;0.20;70.90
40085;DHT22;25786;51.504;7.344;2023-03-02T03:20:19;0.50;70.40
40085;DHT22;25786;51.504;7.344;2023-03-02T03:22:46;0.60;69.70
40085;DHT22;25786;51.504;7.344;2023-03-02T03:25:11;0.70;69.00
40085;DHT22;25786;51.504;7.344;2023-03-02T03:27:40;0.70;69.20
40085;DHT22;25786;51.504;7.344;2023-03-02T03:30:07;0.60;69.20
40085;DHT22;25786;51.504;7.344;2023-03-02T03:32:33;0.60;69.00
40085;DHT22;25786;51.504;7.344;2023-03-02T03:34:59;0.70;68.70
40085;DHT22;25786;51.504;7.344;2023-03-02T03:37:25;0.60;69.40
40085;DHT22;25786;51.504;7.344;2023-03-02T03:39:50;0.60;69.50
40085;DHT22;25786;51.504;7.344;2023-03-02T03:42:16;0.50;69.30
40085;DHT22;25786;51.504;7.344;2023-03-02T03:44:41;0.40;70.20
40085;DHT22;25786;51.504;7.344;2023-03-02T03:47:07;0.40;70.00
40085;DHT22;25786;51.504;7.344;2023-03-02T03:49:32;0.40;70.10
40085;DHT22;25786;51.504;7.344;2023-03-02T03:51:58;0.50;69.80
40085;DHT22;25786;51.504;7.344;2023-03-02T03:54:23;0.30;70.10
40085;DHT22;25786;51.504;7.344;2023-03-02T03:56:49;0.40;70.00
40085;DHT22;25786;51.504;7.344;2023-03-02T03:59:17;0.30;70.20
40085;DHT22;25786;51.504;7.344;2023-03-02T04:01:44;0.20;70.60
40085;DHT22;25786;51.504;7.344;2023-03-02T04:04:12;0.20;71.00
40085;DHT22;25786;51.504;7.344;2023-03-02T04:06:38;0.30;71.10
40085;DHT22;25786;51.504;7.344;2023-03-02T04:09:03;0.50;69.90
40085;DHT22;25786;51.504;7.344;2023-03-02T04:11:30;0.50;69.90
40085;DHT22;25786;51.504;7.344;2023-03-02T04:13:56;0.30;69.80
40085;DHT22;25786;51.504;7.344;2023-03-02T04:16:21;0.20;70.40
40085;DHT22;25786;51.504;7.344;2023-03-02T04:18:47;0.10;70.60
40085;DHT22;25786;51.504;7.344;2023-03-02T04:21:12;0.10;70.90
40085;DHT22;25786;51.504;7.344;2023-03-02T04:23:38;0.20;71.40
40085;DHT22;25786;51.504;7.344;2023-03-02T04:26:04;0.30;71.10
40085;DHT22;25786;51.504;7.344;2023-03-02T04:28:30;0.30;70.50
40085;DHT22;25786;51.504;7.344;2023-03-02T04:30:56;0.20;70.50
40085;DHT22;25786;51.504;7.344;2023-03-02T04:33:22;0.20;70.70
40085;DHT22;25786;51.504;7.344;2023-03-02T04:35:47;0.10;70.70
40085;DHT22;25786;51.504;7.344;2023-03-02T04:38:12;0.10;70.90
40085;DHT22;25786;51.504;7.344;2023-03-02T04:40:38;0.10;71.20
40085;DHT22;25786;51.504;7.344;2023-03-02T04:43:04;0.10;71.10
40085;DHT22;25786;51.504;7.344;2023-03-02T04:45:29;0.00;70.90
40085;DHT22;25786;51.504;7.344;2023-03-02T04:47:54;0.10;71.50
40085;DHT22;25786;51.504;7.344;2023-03-02T04:50:20;0.10;70.80
40085;DHT22;25786;51.504;7.344;2023-03-02T04:52:46;0.00;70.90
40085;DHT22;25786;51.504;7.344;2023-03-02T04:55:14;0.10;71.40
40085;DHT22;25786;51.504;7.344;2023-03-02T04:57:42;0.10;71.40
40085;DHT22;25786;51.504;7.344;2023-03-02T05:00:07;0.00;70.90
40085;DHT22;25786;51.504;7.344;2023-03-02T05:02:34;0.00;70.90
40085;DHT22;25786;51.504;7.344;2023-03-02T05:04:59;0.00;71.00
40085;DHT22;25786;51.504;7.344;2023-03-02T05:07:25;0.10;71.00
40085;DHT22;25786;51.504;7.344;2023-03-02T05:09:50;0.00;70.90
40085;DHT22;25786;51.504;7.344;2023-03-02T05:12:15;0.00;71.40
40085;DHT22;25786;51.504;7.344;2023-03-02T05:14:43;0.00;71.00
40085;DHT22;25786;51.504;7.344;2023-03-02T05:17:09;0.10;71.10
40085;DHT22;25786;51.504;7.344;2023-03-02T05:19:34;0.10;71.00
40085;DHT22;25786;51.504;7.344;2023-03-02T05:22:00;0.10;71.10
40085;DHT22;25786;51.504;7.344;2023-03-02T05:24:25;0.00;70.50
40085;DHT22;25786;51.504;7.344;2023-03-02T05:26:51;0.10;71.10
40085;DHT22;25786;51.504;7.344;2023-03-02T05:29:16;0.10;71.00
40085;DHT22;25786;51.504;7.344;2023-03-02T05:31:43;0.20;70.90
40085;DHT22;25786;51.504;7.344;2023-03-02T05:34:10;0.20;70.90
40085;DHT22;25786;51.504;7.344;2023-03-02T05:36:35;0.30;71.00
40085;DHT22;25786;51.504;7.344;2023-03-02T05:39:01;0.30;70.50
40085;DHT22;25786;51.504;7.344;2023-03-02T05:41:27;0.40;70.20
40085;DHT22;25786;51.504;7.344;2023-03-02T05:43:53;0.30;69.90
40085;DHT22;25786;51.504;7.344;2023-03-02T05:46:18;0.30;69.90
40085;DHT22;25786;51.504;7.344;2023-03-02T05:48:44;0.30;70.10
40085;DHT22;25786;51.504;7.344;2023-03-02T05:51:10;0.30;70.00
40085;DHT22;25786;51.504;7.344;2023-03-02T05:53:36;0.30;69.60
40085;DHT22;25786;51.504;7.344;2023-03-02T05:56:01;0.10;70.10
40085;DHT22;25786;51.504;7.344;2023-03-02T05:58:27;0.00;70.30
40085;DHT22;25786;51.504;7.344;2023-03-02T06:00:53;0.00;70.70
40085;DHT22;25786;51.504;7.344;2023-03-02T06:03:18;-3276.70;70.90
40085;DHT22;25786;51.504;7.344;2023-03-02T06:05:44;0.00;70.90
40085;DHT22;25786;51.504;7.344;2023-03-02T06:08:09;0.00;71.20
40085;DHT22;25786;51.504;7.344;2023-03-02T06:10:43;0.00;71.10
40085;DHT22;25786;51.504;7.344;2023-03-02T06:13:10;0.00;71.20
40085;DHT22;25786;51.504;7.344;2023-03-02T06:15:38;0.00;70.60
40085;DHT22;25786;51.504;7.344;2023-03-02T06:18:05;0.00;71.40
40085;DHT22;25786;51.504;7.344;2023-03-02T06:20:30;0.10;71.20
40085;DHT22;25786;51.504;7.344;2023-03-02T06:22:56;0.20;70.70
40085;DHT22;25786;51.504;7.344;2023-03-02T06:25:22;0.40;70.00
40085;DHT22;25786;51.504;7.344;2023-03-02T06:27:56;0.50;69.10
40085;DHT22;25786;51.504;7.344;2023-03-02T06:30:25;0.50;69.30
40085;DHT22;25786;51.504;7.344;2023-03-02T06:32:52;0.50;68.80
40085;DHT22;25786;51.504;7.344;2023-03-02T06:35:17;0.30;69.10
40085;DHT22;25786;51.504;7.344;2023-03-02T06:37:43;0.20;69.60
40085;DHT22;25786;51.504;7.344;2023-03-02T06:40:09;0.20;70.10
40085;DHT22;25786;51.504;7.344;2023-03-02T06:42:35;0.30;70.10
40085;DHT22;25786;51.504;7.344;2023-03-02T06:45:01;0.20;70.00
40085;DHT22;25786;51.504;7.344;2023-03-02T06:47:26;0.30;69.90
40085;DHT22;25786;51.504;7.344;2023-03-02T06:49:55;0.30;70.00
40085;DHT22;25786;51.504;7.344;2023-03-02T06:52:30;0.30;69.50
40085;DHT22;25786;51.504;7.344;2023-03-02T06:54:58;0.30;70.10
40085;DHT22;25786;51.504;7.344;2023-03-02T06:57:26;0.30;69.60
40085;DHT22;25786;51.504;7.344;2023-03-02T06:59:58;0.40;70.00
40085;DHT22;25786;51.504;7.344;2023-03-02T07:02:37;0.40;69.50
40085;DHT22;25786;51.504;7.344;2023-03-02T07:05:07;0.30;69.80
40085;DHT22;25786;51.504;7.344;2023-03-02T07:07:33;0.50;69.50
40085;DHT22;25786;51.504;7.344;2023-03-02T07:09:58;0.60;68.90
40085;DHT22;25786;51.504;7.344;2023-03-02T07:12:24;0.40;69.00
40085;DHT22;25786;51.504;7.344;2023-03-02T07:14:54;0.30;69.90
40085;DHT22;25786;51.504;7.344;2023-03-02T07:17:22;0.40;70.20
40085;DHT22;25786;51.504;7.344;2023-03-02T07:19:48;0.40;70.40
40085;DHT22;25786;51.504;7.344;2023-03-02T07:22:13;0.30;70.30
40085;DHT22;25786;51.504;7.344;2023-03-02T07:24:39;0.40;70.30
40085;DHT22;25786;51.504;7.344;2023-03-02T07:27:08;0.40;70.30
40085;DHT22;25786;51.504;7.344;2023-03-02T07:29:39;0.40;70.20
40085;DHT22;25786;51.504;7.344;2023-03-02T07:32:10;0.40;70.20
40085;DHT22;25786;51.504;7.344;2023-03-02T07:34:35;0.50;69.70
40085;DHT22;25786;51.504;7.344;2023-03-02T07:37:04;0.70;69.20
40085;DHT22;25786;51.504;7.344;2023-03-02T07:39:30;0.70;69.60
40085;DHT22;25786;51.504;7.344;2023-03-02T07:42:02;0.80;69.00
40085;DHT22;25786;51.504;7.344;2023-03-02T07:44:37;1.00;68.30
40085;DHT22;25786;51.504;7.344;2023-03-02T07:47:02;0.90;68.00
40085;DHT22;25786;51.504;7.344;2023-03-02T07:49:28;0.90;68.40
40085;DHT22;25786;51.504;7.344;2023-03-02T07:51:53;0.90;68.90
40085;DHT22;25786;51.504;7.344;2023-03-02T07:54:19;1.00;69.60
40085;DHT22;25786;51.504;7.344;2023-03-02T07:56:44;1.00;69.10
40085;DHT22;25786;51.504;7.344;2023-03-02T07:59:10;1.00;68.50
40085;DHT22;25786;51.504;7.344;2023-03-02T08:01:36;1.10;68.70
40085;DHT22;25786;51.504;7.344;2023-03-02T08:04:04;1.10;68.80
40085;DHT22;25786;51.504;7.344;2023-03-02T08:06:35;1.20;68.90
40085;DHT22;25786;51.504;7.344;2023-03-02T08:09:06;1.30;68.70
40085;DHT22;25786;51.504;7.344;2023-03-02T08:11:32;1.50;67.90
40085;DHT22;25786;51.504;7.344;2023-03-02T08:13:58;1.50;67.40
40085;DHT22;25786;51.504;7.344;2023-03-02T08:16:24;1.60;67.00
40085;DHT22;25786;51.504;7.344;2023-03-02T08:18:50;1.60;65.40
40085;DHT22;25786;51.504;7.344;2023-03-02T08:21:17;1.70;64.80
40085;DHT22;25786;51.504;7.344;2023-03-02T08:23:43;1.70;64.40
40085;DHT22;25786;51.504;7.344;2023-03-02T08:26:09;1.80;64.10
40085;DHT22;25786;51.504;7.344;2023-03-02T08:28:35;1.80;64.00
40085;DHT22;25786;51.504;7.344;2023-03-02T08:31:10;1.90;63.90
40085;DHT22;25786;51.504;7.344;2023-03-02T08:33:39;1.90;64.10
40085;DHT22;25786;51.504;7.344;2023-03-02T08:36:05;2.00;63.60
40085;DHT22;25786;51.504;7.344;2023-03-02T08:38:32;2.10;63.40
40085;DHT22;25786;51.504;7.344;2023-03-02T08:40:58;2.20;63.40
40085;DHT22;25786;51.504;7.344;2023-03-02T08:43:26;2.30;64.10
40085;DHT22;25786;51.504;7.344;2023-03-02T08:45:54;2.30;62.90
40085;DHT22;25786;51.504;7.344;2023-03-02T08:48:22;2.40;63.30
40085;DHT22;25786;51.504;7.344;2023-03-02T08:50:54;2.50;62.00
40085;DHT22;25786;51.504;7.344;2023-03-02T08:53:20;2.50;62.00
40085;DHT22;25786;51.504;7.344;2023-03-02T08:55:46;2.60;61.50
40085;DHT22;25786;51.504;7.344;2023-03-02T08:58:14;2.70;61.10
40085;DHT22;25786;51.504;7.344;2023-03-02T09:00:39;2.70;60.30
40085;DHT22;25786;51.504;7.344;2023-03-02T09:03:08;2.80;61.40
40085;DHT22;25786;51.504;7.344;2023-03-02T09:05:33;2.90;60.70
40085;DHT22;25786;51.504;7.344;2023-03-02T09:08:00;3.00;60.50
40085;DHT22;25786;51.504;7.344;2023-03-02T09:10:25;3.00;60.80
40085;DHT22;25786;51.504;7.344;2023-03-02T09:12:51;3.10;60.10
40085;DHT22;25786;51.504;7.344;2023-03-02T09:15:16;3.10;58.80
40085;DHT22;25786;51.504;7.344;2023-03-02T09:17:42;3.20;59.00
40085;DHT22;25786;51.504;7.344;2023-03-02T09:20:08;3.20;59.20
40085;DHT22;25786;51.504;7.344;2023-03-02T09:22:33;3.30;59.70
40085;DHT22;25786;51.504;7.344;2023-03-02T09:25:00;3.40;59.10
40085;DHT22;25786;51.504;7.344;2023-03-02T09:27:26;3.40;59.20
40085;DHT22;25786;51.504;7.344;2023-03-02T09:29:51;3.50;59.10
40085;DHT22;25786;51.504;7.344;2023-03-02T09:32:19;3.70;59.40
40085;DHT22;25786;51.504;7.344;2023-03-02T09:34:45;3.80;58.50
40085;DHT22;25786;51.504;7.344;2023-03-02T09:37:10;3.80;58.30
40085;DHT22;25786;51.504;7.344;2023-03-02T09:39:36;3.90;57.70
40085;DHT22;25786;51.504;7.344;2023-03-02T09:47:21;4.00;56.40
40085;DHT22;25786;51.504;7.344;2023-03-02T09:54:54;4.20;56.80
40085;DHT22;25786;51.504;7.344;2023-03-02T09:57:20;4.30;55.70
40085;DHT22;25786;51.504;7.344;2023-03-02T09:59:52;4.40;55.40
40085;DHT22;25786;51.504;7.344;2023-03-02T10:02:29;4.50;56.00
40085;DHT22;25786;51.504;7.344;2023-03-02T10:04:56;4.60;57.30
40085;DHT22;25786;51.504;7.344;2023-03-02T10:07:26;4.60;54.20
40085;DHT22;25786;51.504;7.344;2023-03-02T10:09:53;4.70;54.00
40085;DHT22;25786;51.504;7.344;2023-03-02T10:12:32;4.70;54.30
40085;DHT22;25786;51.504;7.344;2023-03-02T10:17:38;4.80;54.00
40085;DHT22;25786;51.504;7.344;2023-03-02T10:20:14;4.90;54.50
40085;DHT22;25786;51.504;7.344;2023-03-02T10:22:43;5.00;53.80
40085;DHT22;25786;51.504;7.344;2023-03-02T10:27:37;5.10;52.90
40085;DHT22;25786;51.504;7.344;2023-03-02T10:30:05;5.20;53.10
40085;DHT22;25786;51.504;7.344;2023-03-02T10:32:35;5.20;51.90
40085;DHT22;25786;51.504;7.344;2023-03-02T10:35:04;5.30;52.90
40085;DHT22;25786;51.504;7.344;2023-03-02T10:37:35;5.40;51.10
40085;DHT22;25786;51.504;7.344;2023-03-02T10:40:00;5.50;50.70
40085;DHT22;25786;51.504;7.344;2023-03-02T10:48:50;5.90;49.40
40085;DHT22;25786;51.504;7.344;2023-03-02T10:51:34;5.90;50.20
40085;DHT22;25786;51.504;7.344;2023-03-02T10:54:04;6.10;49.80
40085;DHT22;25786;51.504;7.344;2023-03-02T10:56:32;6.10;48.80
40085;DHT22;25786;51.504;7.344;2023-03-02T10:59:11;6.20;48.00
40085;DHT22;25786;51.504;7.344;2023-03-02T11:01:46;6.20;48.10
40085;DHT22;25786;51.504;7.344;2023-03-02T11:05:34;6.30;49.00
40085;DHT22;25786;51.504;7.344;2023-03-02T11:07:30;6.30;46.70
40085;DHT22;25786;51.504;7.344;2023-03-02T11:12:20;6.40;48.20
40085;DHT22;25786;51.504;7.344;2023-03-02T11:15:10;6.40;47.40
40085;DHT22;25786;51.504;7.344;2023-03-02T11:17:39;6.50;48.10
40085;DHT22;25786;51.504;7.344;2023-03-02T11:20:12;6.50;48.70
40085;DHT22;25786;51.504;7.344;2023-03-02T11:22:48;6.60;47.70
40085;DHT22;25786;51.504;7.344;2023-03-02T11:25:22;6.60;49.10
40085;DHT22;25786;51.504;7.344;2023-03-02T11:27:50;6.70;46.90
40085;DHT22;25786;51.504;7.344;2023-03-02T11:30:19;6.60;47.90
40085;DHT22;25786;51.504;7.344;2023-03-02T11:32:51;6.60;46.80
40085;DHT22;25786;51.504;7.344;2023-03-02T11:40:54;6.80;47.50
40085;DHT22;25786;51.504;7.344;2023-03-02T11:43:21;6.90;47.50
40085;DHT22;25786;51.504;7.344;2023-03-02T11:45:49;6.90;45.80
40085;DHT22;25786;51.504;7.344;2023-03-02T11:48:17;6.90;45.00
40085;DHT22;25786;51.504;7.344;2023-03-02T11:50:47;6.90;45.00
40085;DHT22;25786;51.504;7.344;2023-03-02T11:53:15;7.00;44.90
40085;DHT22;25786;51.504;7.344;2023-03-02T11:55:43;7.00;46.30
40085;DHT22;25786;51.504;7.344;2023-03-02T11:58:12;7.10;45.30
40085;DHT22;25786;51.504;7.344;2023-03-02T12:00:41;7.10;43.20
40085;DHT22;25786;51.504;7.344;2023-03-02T12:05:38;7.10;45.30
40085;DHT22;25786;51.504;7.344;2023-03-02T12:08:06;7.20;43.80
40085;DHT22;25786;51.504;7.344;2023-03-02T12:10:39;7.30;43.30
40085;DHT22;25786;51.504;7.344;2023-03-02T12:13:17;7.40;42.90
40085;DHT22;25786;51.504;7.344;2023-03-02T12:15:45;7.40;45.20
40085;DHT22;25786;51.504;7.344;2023-03-02T12:21:37;7.40;44.30
40085;DHT22;25786;51.504;7.344;2023-03-02T12:23:32;7.40;43.50
40085;DHT22;25786;51.504;7.344;2023-03-02T12:26:02;7.60;43.10
40085;DHT22;25786;51.504;7.344;2023-03-02T12:28:30;7.70;44.20
40085;DHT22;25786;51.504;7.344;2023-03-02T12:31:02;7.70;43.90
40085;DHT22;25786;51.504;7.344;2023-03-02T12:33:28;7.80;44.50
40085;DHT22;25786;51.504;7.344;2023-03-02T12:36:01;7.80;43.00
40085;DHT22;25786;51.504;7.344;2023-03-02T12:38:31;7.90;43.30
40085;DHT22;25786;51.504;7.344;2023-03-02T12:48:51;8.00;45.10
40085;DHT22;25786;51.504;7.344;2023-03-02T12:51:28;8.10;44.10
40085;DHT22;25786;51.504;7.344;2023-03-02T12:54:12;8.20;42.90
40085;DHT22;25786;51.504;7.344;2023-03-02T12:56:38;8.10;42.70
40085;DHT22;25786;51.504;7.344;2023-03-02T12:59:03;8.10;43.40
40085;DHT22;25786;51.504;7.344;2023-03-02T13:01:30;8.20;41.50
40085;DHT22;25786;51.504;7.344;2023-03-02T13:03:56;8.20;42.30
40085;DHT22;25786;51.504;7.344;2023-03-02T13:06:23;8.30;41.80
40085;DHT22;25786;51.504;7.344;2023-03-02T13:08:53;8.40;41.80
40085;DHT22;25786;51.504;7.344;2023-03-02T13:11:26;8.20;44.50
40085;DHT22;25786;51.504;7.344;2023-03-02T13:13:52;8.40;43.70
40085;DHT22;25786;51.504;7.344;2023-03-02T13:16:22;8.30;42.40
40085;DHT22;25786;51.504;7.344;2023-03-02T13:18:49;8.30;42.50
40085;DHT22;25786;51.504;7.344;2023-03-02T13:21:18;8.40;43.70
40085;DHT22;25786;51.504;7.344;2023-03-02T13:23:44;8.40;43.70
40085;DHT22;25786;51.504;7.344;2023-03-02T13:26:23;8.30;43.20
40085;DHT22;25786;51.504;7.344;2023-03-02T13:28:49;8.50;43.70
40085;DHT22;25786;51.504;7.344;2023-03-02T13:31:24;8.40;44.50
40085;DHT22;25786;51.504;7.344;2023-03-02T13:33:49;8.40;44.50
40085;DHT22;25786;51.504;7.344;2023-03-02T13:36:20;8.50;45.20
40085;DHT22;25786;51.504;7.344;2023-03-02T13:38:47;8.50;45.80
40085;DHT22;25786;51.504;7.344;2023-03-02T13:41:23;8.50;45.20
40085;DHT22;25786;51.504;7.344;2023-03-02T13:43:49;8.50;43.70
40085;DHT22;25786;51.504;7.344;2023-03-02T13:48:40;8.60;45.30
40085;DHT22;25786;51.504;7.344;2023-03-02T13:51:15;8.50;43.80
40085;DHT22;25786;51.504;7.344;2023-03-02T13:53:42;8.60;44.70
40085;DHT22;25786;51.504;7.344;2023-03-02T13:56:10;8.60;43.80
40085;DHT22;25786;51.504;7.344;2023-03-02T13:58:39;8.60;46.10
40085;DHT22;25786;51.504;7.344;2023-03-02T14:01:05;8.60;44.40
40085;DHT22;25786;51.504;7.344;2023-03-02T14:03:31;8.60;44.80
40085;DHT22;25786;51.504;7.344;2023-03-02T14:05:57;8.80;45.70
40085;DHT22;25786;51.504;7.344;2023-03-02T14:08:22;8.70;44.70
40085;DHT22;25786;51.504;7.344;2023-03-02T14:10:48;8.70;46.20
40085;DHT22;25786;51.504;7.344;2023-03-02T14:13:25;8.70;45.10
40085;DHT22;25786;51.504;7.344;2023-03-02T14:15:52;8.70;46.00
40085;DHT22;25786;51.504;7.344;2023-03-02T14:20:53;8.70;47.10
40085;DHT22;25786;51.504;7.344;2023-03-02T14:23:18;8.80;45.20
40085;DHT22;25786;51.504;7.344;2023-03-02T14:25:44;8.80;46.30
40085;DHT22;25786;51.504;7.344;2023-03-02T14:28:10;8.80;45.20
40085;DHT22;25786;51.504;7.344;2023-03-02T14:30:36;8.80;46.00
40085;DHT22;25786;51.504;7.344;2023-03-02T14:33:03;8.80;45.20
40085;DHT22;25786;51.504;7.344;2023-03-02T14:35:29;8.80;46.40
40085;DHT22;25786;51.504;7.344;2023-03-02T14:37:54;8.80;47.10
40085;DHT22;25786;51.504;7.344;2023-03-02T14:40:22;8.80;46.40
40085;DHT22;25786;51.504;7.344;2023-03-02T14:42:48;8.70;46.40
40085;DHT22;25786;51.504;7.344;2023-03-02T14:45:23;8.70;47.30
40085;DHT22;25786;51.504;7.344;2023-03-02T14:47:48;8.80;48.10
40085;DHT22;25786;51.504;7.344;2023-03-02T14:50:14;8.90;47.70
40085;DHT22;25786;51.504;7.344;2023-03-02T14:52:44;8.90;46.60
40085;DHT22;25786;51.504;7.344;2023-03-02T14:55:14;8.90;47.30
40085;DHT22;25786;51.504;7.344;2023-03-02T14:57:40;9.00;46.90
40085;DHT22;25786;51.504;7.344;2023-03-02T15:00:06;8.90;46.50
40085;DHT22;25786;51.504;7.344;2023-03-02T15:02:32;8.90;47.20
40085;DHT22;25786;51.504;7.344;2023-03-02T15:04:58;9.00;45.90
40085;DHT22;25786;51.504;7.344;2023-03-02T15:07:26;9.00;44.70
40085;DHT22;25786;51.504;7.344;2023-03-02T15:09:55;9.00;45.50
40085;DHT22;25786;51.504;7.344;2023-03-02T15:12:21;8.90;46.30
40085;DHT22;25786;51.504;7.344;2023-03-02T15:14:46;8.70;47.10
40085;DHT22;25786;51.504;7.344;2023-03-02T15:17:12;8.70;49.90
40085;DHT22;25786;51.504;7.344;2023-03-02T15:19:37;8.60;50.40
40085;DHT22;25786;51.504;7.344;2023-03-02T15:22:03;8.80;51.20
40085;DHT22;25786;51.504;7.344;2023-03-02T15:24:28;8.80;51.80
40085;DHT22;25786;51.504;7.344;2023-03-02T15:26:54;8.80;52.10
40085;DHT22;25786;51.504;7.344;2023-03-02T15:29:19;8.70;53.10
40085;DHT22;25786;51.504;7.344;2023-03-02T15:31:45;8.60;54.10
40085;DHT22;25786;51.504;7.344;2023-03-02T15:34:10;8.60;54.70
40085;DHT22;25786;51.504;7.344;2023-03-02T15:36:36;8.50;54.90
40085;DHT22;25786;51.504;7.344;2023-03-02T15:39:02;8.50;55.70
40085;DHT22;25786;51.504;7.344;2023-03-02T15:41:27;8.60;55.40
40085;DHT22;25786;51.504;7.344;2023-03-02T15:43:53;8.50;56.20
40085;DHT22;25786;51.504;7.344;2023-03-02T15:46:19;8.60;55.90
40085;DHT22;25786;51.504;7.344;2023-03-02T15:48:45;8.50;56.30
40085;DHT22;25786;51.504;7.344;2023-03-02T15:51:10;8.50;56.30
40085;DHT22;25786;51.504;7.344;2023-03-02T15:53:36;8.40;56.60
40085;DHT22;25786;51.504;7.344;2023-03-02T15:56:05;8.30;56.80
40085;DHT22;25786;51.504;7.344;2023-03-02T15:58:31;8.40;56.90
40085;DHT22;25786;51.504;7.344;2023-03-02T16:00:57;8.40;57.00
40085;DHT22;25786;51.504;7.344;2023-03-02T16:03:23;8.40;57.40
40085;DHT22;25786;51.504;7.344;2023-03-02T16:05:48;8.40;57.20
40085;DHT22;25786;51.504;7.344;2023-03-02T16:08:14;8.20;57.80
40085;DHT22;25786;51.504;7.344;2023-03-02T16:10:39;8.20;58.30
40085;DHT22;25786;51.504;7.344;2023-03-02T16:13:07;8.30;58.40
40085;DHT22;25786;51.504;7.344;2023-03-02T16:15:38;8.40;58.20
40085;DHT22;25786;51.504;7.344;2023-03-02T16:18:05;8.20;58.60
40085;DHT22;25786;51.504;7.344;2023-03-02T16:20:32;8.10;58.80
40085;DHT22;25786;51.504;7.344;2023-03-02T16:22:58;8.00;59.40
40085;DHT22;25786;51.504;7.344;2023-03-02T16:25:26;8.10;58.80
40085;DHT22;25786;51.504;7.344;2023-03-02T16:27:53;8.10;58.80
40085;DHT22;25786;51.504;7.344;2023-03-02T16:30:18;7.90;59.20
40085;DHT22;25786;51.504;7.344;2023-03-02T16:32:46;8.00;59.10
40085;DHT22;25786;51.504;7.344;2023-03-02T16:35:12;7.90;59.20
40085;DHT22;25786;51.504;7.344;2023-03-02T16:37:37;7.80;59.70
40085;DHT22;25786;51.504;7.344;2023-03-02T16:40:03;7.70;59.90
40085;DHT22;25786;51.504;7.344;2023-03-02T16:42:28;7.60;60.00
40085;DHT22;25786;51.504;7.344;2023-03-02T16:44:54;7.60;60.30